createdAt,value
2019-04-04T00:02:14.467Z,6.25
2019-04-04T00:04:42.863Z,7.70
2019-04-04T00:07:11.006Z,5.67
2019-04-04T00:09:39.166Z,6.50
2019-04-04T00:12:08.051Z,5.20
2019-04-04T00:14:37.018Z,4.93
2019-04-04T00:17:05.162Z,4.55
2019-04-04T00:19:33.555Z,6.43
2019-04-04T00:22:02.972Z,4.95
2019-04-04T00:24:31.558Z,5.92
2019-04-04T00:26:59.958Z,5.23
2019-04-04T00:29:28.369Z,4.93
2019-04-04T00:31:56.495Z,5.00
2019-04-04T00:34:27.637Z,7.72
2019-04-04T00:36:54.762Z,5.37
2019-04-04T00:39:22.917Z,7.67
2019-04-04T00:41:51.054Z,5.07
2019-04-04T00:44:19.182Z,7.37
2019-04-04T00:46:47.326Z,7.90
2019-04-04T00:49:15.462Z,4.73
2019-04-04T00:51:43.939Z,5.33
2019-04-04T00:54:13.887Z,5.35
2019-04-04T00:56:41.942Z,5.75
2019-04-04T00:59:10.426Z,5.55
2019-04-04T01:01:38.569Z,6.12
2019-04-04T01:04:06.697Z,7.40
2019-04-04T01:06:34.846Z,5.50
2019-04-04T01:09:04.695Z,6.43
2019-04-04T01:11:32.843Z,5.43
2019-04-04T01:14:01.218Z,4.67
2019-04-04T01:16:29.635Z,6.53
2019-04-04T01:18:58.011Z,5.47
2019-04-04T01:21:26.422Z,5.50
2019-04-04T01:23:57.928Z,6.35
2019-04-04T01:26:24.442Z,6.28
2019-04-04T01:28:52.577Z,6.70
2019-04-04T01:31:20.722Z,6.70
2019-04-04T01:33:51.057Z,8.03
2019-04-04T01:36:18.995Z,6.05
2019-04-04T01:38:47.138Z,7.05
2019-04-04T01:41:15.535Z,6.20
2019-04-04T01:43:43.666Z,8.30
2019-04-04T01:46:13.041Z,6.40
2019-04-04T01:48:41.682Z,7.90
2019-04-04T01:51:10.098Z,7.10
2019-04-04T01:53:38.233Z,6.85
2019-04-04T01:56:07.021Z,8.20
2019-04-04T01:58:35.293Z,6.20
2019-04-04T02:01:03.425Z,7.60
2019-04-04T02:03:31.830Z,10.58
2019-04-04T02:05:59.966Z,7.20
2019-04-04T02:08:28.111Z,6.62
2019-04-04T02:10:56.498Z,7.30
2019-04-04T02:13:24.897Z,7.17
2019-04-04T02:15:53.041Z,7.45
2019-04-04T02:18:23.341Z,8.73
2019-04-04T02:20:51.297Z,8.60
2019-04-04T02:23:19.476Z,6.65
2019-04-04T02:25:47.867Z,7.47
2019-04-04T02:28:16.014Z,13.93
2019-04-04T02:30:48.040Z,8.60
2019-04-04T02:33:14.175Z,7.30
2019-04-04T02:35:43.732Z,8.03
2019-04-04T02:38:12.401Z,8.05
2019-04-04T02:40:41.987Z,8.20
2019-04-04T02:43:10.366Z,6.45
2019-04-04T02:45:39.067Z,8.53
2019-04-04T02:48:07.603Z,6.92
2019-04-04T02:50:35.925Z,6.90
2019-04-04T02:53:04.266Z,6.08
2019-04-04T02:55:32.663Z,9.13
2019-04-04T02:58:00.808Z,8.43
2019-04-04T03:00:29.219Z,8.67
2019-04-04T03:02:57.433Z,7.77
2019-04-04T03:05:25.818Z,7.83
2019-04-04T03:07:53.951Z,7.50
2019-04-04T03:10:22.086Z,9.20
2019-04-04T03:12:50.246Z,11.10
2019-04-04T03:15:18.444Z,8.63
2019-04-04T03:17:46.814Z,8.77
2019-04-04T03:20:17.176Z,7.73
2019-04-04T03:22:44.978Z,9.37
2019-04-04T03:25:14.695Z,7.53
2019-04-04T03:27:43.227Z,9.57
2019-04-04T03:30:14.563Z,7.10
2019-04-04T03:32:41.607Z,7.73
2019-04-04T03:35:09.825Z,8.97
2019-04-04T03:37:40.625Z,7.20
2019-04-04T03:40:07.952Z,8.90
2019-04-04T03:42:36.066Z,10.50
2019-04-04T03:45:05.170Z,9.83
2019-04-04T03:47:33.301Z,9.60
2019-04-04T03:50:01.445Z,10.20
2019-04-04T03:52:29.575Z,12.43
2019-04-04T03:54:57.747Z,11.70
2019-04-04T03:57:26.193Z,10.70
2019-04-04T03:59:54.573Z,9.50
2019-04-04T04:02:22.706Z,9.90
2019-04-04T04:04:50.930Z,12.43
2019-04-04T04:07:19.050Z,14.93
2019-04-04T04:09:47.256Z,17.80
2019-04-04T04:12:15.654Z,15.07
2019-04-04T04:14:44.058Z,14.67
2019-04-04T04:17:12.644Z,17.47
2019-04-04T04:19:40.983Z,17.90
2019-04-04T04:22:12.716Z,16.73
2019-04-04T04:24:38.986Z,20.03
2019-04-04T04:27:07.384Z,18.40
2019-04-04T04:29:35.773Z,16.70
2019-04-04T04:32:03.911Z,15.10
2019-04-04T04:34:33.963Z,14.80
2019-04-04T04:37:02.420Z,19.27
2019-04-04T04:39:36.082Z,13.60
2019-04-04T04:42:00.693Z,12.80
2019-04-04T04:44:28.836Z,13.33
2019-04-04T04:46:56.966Z,11.27
2019-04-04T04:49:25.369Z,14.23
2019-04-04T04:51:53.759Z,14.67
2019-04-04T04:54:22.820Z,11.93
2019-04-04T04:56:51.970Z,15.23
2019-04-04T04:59:20.421Z,12.60
2019-04-04T05:01:50.540Z,15.10
2019-04-04T05:04:18.671Z,15.80
2019-04-04T05:06:46.825Z,16.13
2019-04-04T05:09:15.205Z,18.27
2019-04-04T05:11:43.601Z,15.20
2019-04-04T05:14:11.776Z,21.33
2019-04-04T05:16:40.036Z,15.90
2019-04-04T05:19:08.434Z,20.97
2019-04-04T05:21:36.834Z,14.30
2019-04-04T05:24:05.213Z,15.80
2019-04-04T05:26:34.504Z,17.83
2019-04-04T05:29:03.575Z,19.13
2019-04-04T05:31:31.978Z,14.70
2019-04-04T05:34:00.118Z,17.40
2019-04-04T05:36:28.343Z,14.67
2019-04-04T05:38:56.500Z,15.40
2019-04-04T05:41:26.979Z,20.23
2019-04-04T05:43:54.764Z,18.07
2019-04-04T05:46:23.160Z,19.30
2019-04-04T05:48:51.295Z,18.73
2019-04-04T05:51:19.448Z,16.73
2019-04-04T05:53:47.575Z,18.73
2019-04-04T05:56:15.866Z,19.30
2019-04-04T05:58:44.046Z,17.17
2019-04-04T06:01:19.863Z,22.87
2019-04-04T06:03:48.121Z,21.90
2019-04-04T06:06:16.322Z,18.20
2019-04-04T06:08:44.699Z,18.37
2019-04-04T06:11:12.849Z,15.83
2019-04-04T06:13:41.228Z,14.07
2019-04-04T06:16:09.376Z,14.07
2019-04-04T06:18:37.501Z,12.97
2019-04-04T06:21:05.909Z,13.40
2019-04-04T06:23:34.033Z,15.40
2019-04-04T06:26:06.326Z,9.97
2019-04-04T06:28:32.744Z,11.10
2019-04-04T06:31:00.973Z,11.30
2019-04-04T06:33:29.346Z,9.97
2019-04-04T06:35:57.474Z,13.80
2019-04-04T06:38:25.621Z,13.17
2019-04-04T06:40:53.763Z,14.70
2019-04-04T06:43:22.161Z,11.50
2019-04-04T06:45:50.289Z,10.93
2019-04-04T06:48:18.437Z,12.30
2019-04-04T06:50:46.569Z,12.20
2019-04-04T06:53:14.720Z,12.47
2019-04-04T06:55:42.866Z,11.07
2019-04-04T06:58:11.019Z,14.20
2019-04-04T07:00:41.913Z,14.10
2019-04-04T07:03:09.311Z,10.50
2019-04-04T07:05:38.821Z,14.70
2019-04-04T07:08:07.526Z,15.23
2019-04-04T07:10:35.923Z,10.70
2019-04-04T07:13:14.846Z,12.77
2019-04-04T07:15:45.921Z,12.60
2019-04-04T07:18:04.296Z,10.47
2019-04-04T07:20:32.584Z,14.23
2019-04-04T07:23:00.842Z,13.63
2019-04-04T07:25:29.016Z,9.93
2019-04-04T07:27:57.555Z,11.23
2019-04-04T07:30:27.959Z,11.00
2019-04-04T07:32:55.689Z,11.70
2019-04-04T07:35:23.830Z,13.40
2019-04-04T07:37:56.628Z,19.10
2019-04-04T07:40:21.847Z,15.10
2019-04-04T07:42:50.242Z,11.13
2019-04-04T07:45:18.379Z,10.40
2019-04-04T07:47:47.796Z,13.30
2019-04-04T07:50:16.035Z,10.57
2019-04-04T07:52:44.414Z,11.13
2019-04-04T07:55:12.563Z,11.77
2019-04-04T07:57:40.711Z,12.50
2019-04-04T08:00:09.031Z,9.00
2019-04-04T08:02:37.172Z,12.00
2019-04-04T08:05:06.937Z,13.73
2019-04-04T08:07:35.322Z,11.33
2019-04-04T08:10:04.638Z,8.20
2019-04-04T08:12:32.771Z,7.90
2019-04-04T08:15:00.921Z,12.83
2019-04-04T08:17:29.052Z,8.60
2019-04-04T08:19:59.933Z,12.30
2019-04-04T08:22:27.304Z,8.03
2019-04-04T08:24:55.459Z,8.17
2019-04-04T08:27:23.598Z,8.43
2019-04-04T08:29:51.752Z,9.57
2019-04-04T08:32:20.129Z,11.87
2019-04-04T08:34:48.268Z,8.30
2019-04-04T08:37:16.657Z,8.47
2019-04-04T08:39:44.805Z,12.40
2019-04-04T08:42:12.929Z,6.87
2019-04-04T08:44:41.082Z,11.50
2019-04-04T08:47:09.229Z,9.70
2019-04-04T08:49:37.365Z,11.67
2019-04-04T08:52:16.196Z,8.07
2019-04-04T08:54:37.486Z,8.07
2019-04-04T08:57:05.732Z,6.87
2019-04-04T08:59:33.850Z,9.63
2019-04-04T09:02:01.995Z,13.23
2019-04-04T09:04:30.385Z,11.57
2019-04-04T09:06:58.517Z,8.67
2019-04-04T09:09:26.688Z,13.57
2019-04-04T09:11:54.878Z,8.67
2019-04-04T09:14:23.262Z,9.50
2019-04-04T09:16:51.411Z,17.30
2019-04-04T09:19:19.806Z,8.83
2019-04-04T09:21:47.950Z,9.43
2019-04-04T09:24:16.088Z,14.83
2019-04-04T09:26:44.231Z,10.53
2019-04-04T09:29:12.661Z,9.33
2019-04-04T09:31:40.808Z,11.10
2019-04-04T09:34:08.960Z,19.67
2019-04-04T09:36:37.099Z,9.40
2019-04-04T09:39:06.071Z,9.90
2019-04-04T09:41:34.219Z,11.37
2019-04-04T09:44:05.728Z,11.43
2019-04-04T09:46:32.535Z,9.83
2019-04-04T09:49:01.505Z,15.40
2019-04-04T09:51:29.678Z,13.00
2019-04-04T09:53:57.810Z,14.00
2019-04-04T09:56:26.262Z,11.63
2019-04-04T09:58:55.075Z,11.87
2019-04-04T10:01:23.479Z,14.77
2019-04-04T10:03:51.614Z,14.03
2019-04-04T10:06:20.030Z,13.27
2019-04-04T10:08:48.172Z,16.03
2019-04-04T10:11:16.324Z,14.27
2019-04-04T10:13:44.453Z,15.40
2019-04-04T10:16:12.609Z,16.83
2019-04-04T10:18:40.743Z,15.80
2019-04-04T10:21:12.059Z,17.50
2019-04-04T10:23:39.077Z,16.70
2019-04-04T10:26:07.234Z,13.90
2019-04-04T10:28:35.441Z,14.83
2019-04-04T10:31:03.666Z,17.10
2019-04-04T10:33:32.065Z,14.07
2019-04-04T10:36:00.206Z,16.60
2019-04-04T10:38:28.355Z,15.40
2019-04-04T10:40:56.736Z,15.50
2019-04-04T10:43:24.883Z,15.90
2019-04-04T10:45:53.272Z,16.93
2019-04-04T10:48:21.410Z,19.47
2019-04-04T10:50:49.554Z,28.07
2019-04-04T10:53:17.978Z,19.87
2019-04-04T10:55:46.386Z,15.60
2019-04-04T10:58:14.531Z,17.13
2019-04-04T11:00:42.678Z,16.37
2019-04-04T11:03:10.816Z,16.43
2019-04-04T11:05:39.193Z,17.87
2019-04-04T11:08:07.336Z,19.80
2019-04-04T11:10:35.479Z,22.37
2019-04-04T11:13:03.694Z,20.77
2019-04-04T11:15:31.854Z,18.10
2019-04-04T11:18:00.264Z,22.70
2019-04-04T11:20:28.448Z,20.47
2019-04-04T11:22:56.611Z,22.40
2019-04-04T11:25:24.744Z,22.60
2019-04-04T11:27:53.157Z,18.33
2019-04-04T11:30:21.411Z,19.93
2019-04-04T11:32:49.635Z,20.17
2019-04-04T11:35:17.852Z,26.53
2019-04-04T11:37:45.998Z,18.50
2019-04-04T11:40:14.198Z,17.93
2019-04-04T11:42:42.359Z,21.10
2019-04-04T11:45:10.831Z,20.07
2019-04-04T11:47:38.987Z,14.93
2019-04-04T11:50:08.204Z,15.07
2019-04-04T11:52:36.621Z,15.87
2019-04-04T11:55:05.985Z,16.03
2019-04-04T11:57:34.411Z,15.63
2019-04-04T12:00:03.153Z,19.77
2019-04-04T12:02:32.687Z,14.77
2019-04-04T12:05:01.222Z,15.70
2019-04-04T12:07:29.662Z,17.10
2019-04-04T12:10:07.220Z,18.67
2019-04-04T12:12:28.222Z,17.20
2019-04-04T12:14:56.891Z,16.80
2019-04-04T12:17:25.603Z,17.03
2019-04-04T12:19:54.040Z,13.77
2019-04-04T12:22:22.509Z,19.90
2019-04-04T12:24:51.004Z,15.90
2019-04-04T12:27:19.410Z,15.60
2019-04-04T12:29:47.842Z,13.40
2019-04-04T12:32:16.254Z,14.27
2019-04-04T12:34:44.956Z,13.40
2019-04-04T12:37:13.369Z,14.87
2019-04-04T12:39:44.301Z,15.07
2019-04-04T12:42:12.217Z,16.40
2019-04-04T12:44:40.647Z,17.30
2019-04-04T12:47:09.289Z,12.87
2019-04-04T12:49:37.768Z,16.67
2019-04-04T12:52:06.178Z,16.20
2019-04-04T12:54:34.784Z,12.97
2019-04-04T12:57:03.239Z,16.83
2019-04-04T12:59:31.671Z,14.53
2019-04-04T13:02:00.077Z,15.37
2019-04-04T13:04:31.808Z,16.60
2019-04-04T13:06:58.668Z,15.40
2019-04-04T13:09:27.104Z,18.60
2019-04-04T13:11:55.792Z,15.80
2019-04-04T13:14:24.219Z,14.63
2019-04-04T13:16:52.643Z,14.70
2019-04-04T13:19:21.078Z,13.60
2019-04-04T13:21:49.489Z,18.50
2019-04-04T13:24:17.969Z,15.50
2019-04-04T13:26:46.403Z,22.67
2019-04-04T13:29:14.837Z,15.10
2019-04-04T13:31:43.242Z,15.90
2019-04-04T13:34:11.675Z,16.90
2019-04-04T13:36:40.107Z,15.90
2019-04-04T13:39:10.144Z,14.90
2019-04-04T13:41:38.564Z,22.80
2019-04-04T13:44:07.001Z,17.30
2019-04-04T13:46:35.667Z,15.90
2019-04-04T13:49:04.170Z,14.53
2019-04-04T13:51:32.578Z,19.53
2019-04-04T13:54:01.015Z,18.00
2019-04-04T13:56:29.483Z,14.50
2019-04-04T13:59:01.009Z,17.57
2019-04-04T14:01:28.332Z,16.80
2019-04-04T14:03:56.799Z,14.13
2019-04-04T14:06:25.226Z,17.73
2019-04-04T14:08:53.732Z,23.27
2019-04-04T14:11:22.173Z,18.10
2019-04-04T14:13:50.585Z,21.47
2019-04-04T14:16:19.024Z,20.03
2019-04-04T14:18:47.441Z,19.20
2019-04-04T14:21:15.875Z,15.60
2019-04-04T14:23:45.342Z,18.27
2019-04-04T14:26:14.082Z,18.63
2019-04-04T14:28:42.575Z,12.77
2019-04-04T14:31:11.011Z,13.43
2019-04-04T14:33:39.605Z,16.33
2019-04-04T14:36:08.284Z,22.03
2019-04-04T14:38:36.737Z,15.60
2019-04-04T14:41:11.268Z,16.97
2019-04-04T14:43:35.310Z,15.73
2019-04-04T14:46:04.252Z,14.27
2019-04-04T14:48:32.732Z,17.50
2019-04-04T14:51:01.172Z,12.43
2019-04-04T14:53:29.594Z,12.13
2019-04-04T14:55:58.029Z,11.73
2019-04-04T14:58:26.511Z,12.97
2019-04-04T15:00:54.947Z,16.30
2019-04-04T15:03:23.444Z,14.13
2019-04-04T15:05:51.964Z,11.50
2019-04-04T15:08:20.464Z,9.63
2019-04-04T15:10:48.891Z,10.50
2019-04-04T15:13:17.305Z,11.93
2019-04-04T15:16:05.099Z,10.00
2019-04-04T15:18:33.513Z,9.17
2019-04-04T15:21:01.953Z,11.00
2019-04-04T15:23:30.380Z,6.57
2019-04-04T15:25:58.814Z,9.67
2019-04-04T15:28:27.230Z,9.90
2019-04-04T15:30:55.874Z,7.73
2019-04-04T15:33:24.313Z,7.77
2019-04-04T15:35:52.962Z,7.53
2019-04-04T15:38:21.510Z,9.83
2019-04-04T15:40:50.009Z,17.87
2019-04-04T15:43:18.435Z,11.03
2019-04-04T15:45:46.886Z,6.23
2019-04-04T15:48:15.365Z,6.43
2019-04-04T15:50:43.820Z,8.77
2019-04-04T15:53:12.239Z,6.47
2019-04-04T15:55:40.811Z,8.30
2019-04-04T15:58:09.241Z,5.90
2019-04-04T16:00:37.672Z,4.63
2019-04-04T16:03:06.098Z,9.60
2019-04-04T16:05:34.594Z,4.50
2019-04-04T16:08:03.030Z,3.67
2019-04-04T16:10:31.449Z,4.93
2019-04-04T16:12:59.877Z,3.50
2019-04-04T16:15:28.555Z,5.10
2019-04-04T16:17:56.981Z,4.50
2019-04-04T16:20:25.551Z,3.20
2019-04-04T16:22:54.031Z,3.30
2019-04-04T16:25:22.497Z,2.50
2019-04-04T16:27:50.922Z,2.77
2019-04-04T16:30:19.342Z,3.93
2019-04-04T16:32:48.035Z,3.47
2019-04-04T16:35:16.538Z,2.77
2019-04-04T16:37:44.985Z,4.93
2019-04-04T16:40:13.804Z,2.23
2019-04-04T16:42:42.234Z,4.50
2019-04-04T16:45:10.891Z,2.53
2019-04-04T16:47:39.352Z,2.73
2019-04-04T16:50:09.151Z,4.60
2019-04-04T16:52:37.647Z,3.43
2019-04-04T16:55:07.614Z,3.60
2019-04-04T16:57:36.114Z,3.70
2019-04-04T17:00:07.703Z,4.77
2019-04-04T17:02:36.127Z,2.53
2019-04-04T17:05:05.478Z,3.00
2019-04-04T17:07:33.997Z,2.10
2019-04-04T17:10:02.532Z,3.70
2019-04-04T17:12:31.172Z,4.50
2019-04-04T17:14:59.626Z,1.90
2019-04-04T17:17:28.056Z,1.30
2019-04-04T17:19:56.563Z,7.30
2019-04-04T17:22:25.058Z,9.23
2019-04-04T17:24:53.462Z,2.50
2019-04-04T17:27:21.920Z,1.40
2019-04-04T17:29:50.326Z,1.70
2019-04-04T17:32:19.165Z,1.40
2019-04-04T17:34:47.744Z,1.70
2019-04-04T17:37:16.608Z,1.53
2019-04-04T17:39:45.464Z,1.50
2019-04-04T17:42:13.917Z,2.20
2019-04-04T17:44:42.396Z,1.30
2019-04-04T17:47:11.345Z,1.27
2019-04-04T17:49:40.067Z,2.10
2019-04-04T17:52:09.096Z,1.63
2019-04-04T17:54:37.699Z,1.80
2019-04-04T17:57:06.440Z,6.70
2019-04-04T17:59:34.897Z,2.30
2019-04-04T18:02:03.621Z,2.53
2019-04-04T18:04:34.670Z,1.97
2019-04-04T18:07:02.188Z,2.30
2019-04-04T18:09:32.007Z,2.50
2019-04-04T18:12:00.734Z,3.20
2019-04-04T18:14:29.167Z,3.63
2019-04-04T18:16:57.592Z,3.00
2019-04-04T18:19:26.017Z,5.53
2019-04-04T18:21:54.427Z,4.67
2019-04-04T18:24:22.869Z,4.10
2019-04-04T18:26:51.514Z,5.13
2019-04-04T18:29:20.000Z,6.93
2019-04-04T18:31:48.421Z,3.50
2019-04-04T18:34:16.947Z,4.33
2019-04-04T18:36:45.436Z,4.00
2019-04-04T18:39:13.865Z,4.13
2019-04-04T18:41:42.286Z,3.37
2019-04-04T18:44:10.715Z,3.70
2019-04-04T18:46:39.371Z,3.93
2019-04-04T18:49:07.803Z,3.60
2019-04-04T18:51:37.709Z,5.30
2019-04-04T18:54:06.334Z,2.70
2019-04-04T18:56:34.811Z,2.97
2019-04-04T18:59:03.244Z,2.67
2019-04-04T19:01:31.661Z,6.00
2019-04-04T19:04:00.353Z,2.53
2019-04-04T19:06:28.888Z,2.83
2019-04-04T19:08:57.416Z,2.40
2019-04-04T19:11:26.074Z,2.77
2019-04-04T19:13:54.506Z,2.37
2019-04-04T19:16:22.920Z,3.40
2019-04-04T19:18:51.421Z,2.80
2019-04-04T19:21:19.835Z,2.93
2019-04-04T19:23:49.331Z,2.90
2019-04-04T19:26:18.325Z,2.97
2019-04-04T19:28:46.746Z,2.33
2019-04-04T19:31:15.422Z,2.80
2019-04-04T19:33:43.933Z,2.40
2019-04-04T19:36:12.410Z,3.20
2019-04-04T19:38:41.050Z,3.47
2019-04-04T19:41:09.509Z,4.10
2019-04-04T19:43:37.918Z,3.93
2019-04-04T19:46:06.344Z,3.47
2019-04-04T19:48:35.085Z,3.80
2019-04-04T19:51:03.500Z,3.87
2019-04-04T19:53:32.141Z,3.50
2019-04-04T19:56:00.897Z,3.20
2019-04-04T19:58:29.594Z,4.00
2019-04-04T20:00:58.090Z,3.43
2019-04-04T20:03:26.768Z,3.67
2019-04-04T20:05:55.407Z,3.63
2019-04-04T20:08:23.894Z,4.17
2019-04-04T20:10:52.382Z,3.60
2019-04-04T20:13:30.396Z,3.90
2019-04-04T20:15:50.938Z,4.53
2019-04-04T20:18:19.588Z,3.83
2019-04-04T20:20:48.014Z,4.83
2019-04-04T20:23:16.670Z,4.43
2019-04-04T20:25:45.086Z,6.13
2019-04-04T20:28:13.502Z,5.23
2019-04-04T20:30:41.961Z,6.60
2019-04-04T20:33:10.375Z,6.23
2019-04-04T20:35:38.798Z,6.10
2019-04-04T20:38:07.542Z,5.43
2019-04-04T20:40:36.225Z,6.20
2019-04-04T20:43:04.642Z,5.07
2019-04-04T20:45:33.212Z,5.53
2019-04-04T20:48:01.635Z,6.13
2019-04-04T20:50:30.050Z,5.70
2019-04-04T20:52:58.462Z,7.23
2019-04-04T20:55:26.870Z,7.20
2019-04-04T20:57:55.297Z,5.80
2019-04-04T21:00:23.709Z,7.77
2019-04-04T21:02:52.391Z,6.73
2019-04-04T21:05:20.811Z,6.63
2019-04-04T21:07:49.451Z,8.00
2019-04-04T21:10:18.157Z,9.33
2019-04-04T21:12:46.584Z,7.53
2019-04-04T21:15:14.988Z,7.70
2019-04-04T21:17:43.408Z,6.67
2019-04-04T21:20:12.053Z,8.83
2019-04-04T21:22:40.701Z,6.80
2019-04-04T21:25:09.380Z,7.20
2019-04-04T21:27:37.882Z,6.83
2019-04-04T21:30:07.130Z,8.23
2019-04-04T21:32:35.561Z,6.80
2019-04-04T21:35:05.710Z,7.77
2019-04-04T21:37:34.378Z,7.37
2019-04-04T21:40:03.044Z,9.10
2019-04-04T21:42:31.691Z,7.53
2019-04-04T21:45:00.393Z,8.07
2019-04-04T21:47:28.821Z,6.97
2019-04-04T21:49:57.222Z,7.30
2019-04-04T21:52:25.917Z,6.83
2019-04-04T21:54:54.319Z,10.13
2019-04-04T21:57:22.739Z,9.73
2019-04-04T21:59:51.380Z,8.37
2019-04-04T22:02:20.052Z,8.33
2019-04-04T22:04:48.514Z,7.40
2019-04-04T22:07:17.187Z,11.70
2019-04-04T22:09:45.595Z,7.47
2019-04-04T22:12:14.235Z,6.80
2019-04-04T22:14:42.681Z,8.50
2019-04-04T22:17:11.377Z,10.47
2019-04-04T22:19:40.033Z,8.20
2019-04-04T22:22:08.462Z,7.27
2019-04-04T22:24:37.098Z,6.87
2019-04-04T22:27:05.613Z,7.13
2019-04-04T22:29:34.046Z,6.67
2019-04-04T22:32:02.701Z,6.90
2019-04-04T22:34:31.117Z,9.20
2019-04-04T22:36:59.533Z,7.53
2019-04-04T22:39:28.211Z,7.17
2019-04-04T22:41:56.621Z,8.07
2019-04-04T22:44:34.560Z,6.70
2019-04-04T22:46:55.674Z,8.27
2019-04-04T22:49:24.321Z,5.73
2019-04-04T22:51:52.772Z,5.80
2019-04-04T22:54:21.194Z,7.47
2019-04-04T22:56:49.619Z,6.07
2019-04-04T22:59:18.094Z,6.90
2019-04-04T23:01:46.533Z,7.60
2019-04-04T23:04:15.020Z,6.43
2019-04-04T23:06:43.670Z,6.27
2019-04-04T23:09:12.090Z,6.33
2019-04-04T23:11:40.501Z,6.43
2019-04-04T23:14:09.143Z,6.73
2019-04-04T23:16:37.829Z,6.90
2019-04-04T23:19:06.294Z,6.23
2019-04-04T23:21:34.704Z,8.90
2019-04-04T23:24:03.134Z,7.60
2019-04-04T23:26:31.542Z,6.50
2019-04-04T23:28:59.966Z,7.30
2019-04-04T23:31:28.390Z,5.60
2019-04-04T23:33:56.813Z,7.27
2019-04-04T23:36:34.890Z,6.77
2019-04-04T23:38:55.382Z,6.10
2019-04-04T23:41:23.798Z,7.27
2019-04-04T23:43:52.469Z,6.93
2019-04-04T23:46:21.314Z,5.85
2019-04-04T23:48:49.844Z,6.17
2019-04-04T23:51:18.530Z,5.40
2019-04-04T23:53:46.962Z,6.97
2019-04-04T23:56:15.378Z,8.33
2019-04-04T23:58:44.021Z,6.60
